createdAt,value
2022-09-28T00:01:21.162Z,21.88
2022-09-28T00:03:49.807Z,28.25
2022-09-28T00:09:07.219Z,25.30
2022-09-28T00:11:34.014Z,22.05
2022-09-28T00:14:02.181Z,25.00
2022-09-28T00:16:31.837Z,23.17
2022-09-28T00:21:46.001Z,23.15
2022-09-28T00:26:53.752Z,24.30
2022-09-28T00:29:27.334Z,21.70
2022-09-28T00:31:56.246Z,25.77
2022-09-28T00:34:23.215Z,21.13
2022-09-28T00:39:37.298Z,19.60
2022-09-28T00:44:58.688Z,20.45
2022-09-28T00:47:38.485Z,20.88
2022-09-28T00:50:23.298Z,24.08
2022-09-28T00:53:05.125Z,22.63
2022-09-28T00:55:44.842Z,21.50
2022-09-28T00:58:14.879Z,20.92
2022-09-28T01:00:41.822Z,19.92
2022-09-28T01:03:09.259Z,19.92
2022-09-28T01:05:37.189Z,19.10
2022-09-28T01:08:05.324Z,20.15
2022-09-28T01:10:32.391Z,20.85
2022-09-28T01:12:59.240Z,18.20
2022-09-28T01:15:29.208Z,26.73
2022-09-28T01:18:17.179Z,21.75
2022-09-28T01:21:23.709Z,22.52
2022-09-28T01:24:23.530Z,18.52
2022-09-28T01:27:10.410Z,21.38
2022-09-28T01:29:52.170Z,18.98
2022-09-28T01:35:33.732Z,18.23
2022-09-28T01:38:26.806Z,21.98
2022-09-28T01:40:55.369Z,17.65
2022-09-28T01:43:25.294Z,15.20
2022-09-28T01:45:56.578Z,18.65
2022-09-28T01:48:35.352Z,18.35
2022-09-28T01:51:05.892Z,19.75
2022-09-28T01:56:40.489Z,17.27
2022-09-28T01:59:12.491Z,17.20
2022-09-28T02:01:46.068Z,19.45
2022-09-28T02:04:22.241Z,17.87
2022-09-28T02:09:34.763Z,0
2022-09-28T02:10:13.156Z,17.92
2022-09-28T02:15:50.494Z,22.25
2022-09-28T02:18:17.455Z,20.30
2022-09-28T02:20:52.127Z,17.80
2022-09-28T02:23:22.639Z,18.33
2022-09-28T02:26:00.065Z,25.60
2022-09-28T02:28:26.833Z,19.35
2022-09-28T02:30:53.660Z,21.90
2022-09-28T02:33:25.818Z,23.85
2022-09-28T02:35:52.813Z,23.20
2022-09-28T02:38:19.520Z,21.70
2022-09-28T02:41:09.515Z,24.40
2022-09-28T02:44:15.430Z,28.00
2022-09-28T02:47:04.491Z,34.97
2022-09-28T02:49:24.075Z,0
2022-09-28T02:49:46.814Z,40.63
2022-09-28T02:55:53.454Z,27.70
2022-09-28T02:58:28.834Z,24.20
2022-09-28T03:01:22.425Z,37.80
2022-09-28T03:07:13.276Z,34.05
2022-09-28T03:09:47.354Z,34.08
2022-09-28T03:12:18.361Z,30.00
2022-09-28T03:14:45.662Z,28.50
2022-09-28T03:17:12.435Z,27.00
2022-09-28T03:19:39.254Z,22.60
2022-09-28T03:23:27.552Z,0
2022-09-28T03:24:52.630Z,30.05
2022-09-28T03:27:19.350Z,23.30
2022-09-28T03:32:32.830Z,20.93
2022-09-28T03:34:59.578Z,22.50
2022-09-28T03:37:27.639Z,19.75
2022-09-28T03:39:54.367Z,23.83
2022-09-28T03:42:21.108Z,23.10
2022-09-28T03:44:47.882Z,28.23
2022-09-28T03:47:14.719Z,24.42
2022-09-28T03:49:41.722Z,25.58
2022-09-28T03:52:08.453Z,22.70
2022-09-28T03:54:35.434Z,29.03
2022-09-28T03:57:02.180Z,27.05
2022-09-28T03:59:28.936Z,22.23
2022-09-28T04:01:55.710Z,21.90
2022-09-28T04:04:22.766Z,20.02
2022-09-28T04:06:49.463Z,21.92
2022-09-28T04:09:16.199Z,22.67
2022-09-28T04:12:02.337Z,20.60
2022-09-28T04:14:29.640Z,22.67
2022-09-28T04:16:56.362Z,25.27
2022-09-28T04:19:23.147Z,23.08
2022-09-28T04:21:49.958Z,28.83
2022-09-28T04:24:17.209Z,26.15
2022-09-28T04:26:43.908Z,23.88
2022-09-28T04:29:07.787Z,0
2022-09-28T04:31:59.633Z,29.20
2022-09-28T04:37:13.021Z,32.47
2022-09-28T04:38:56.112Z,0
2022-09-28T04:39:39.846Z,28.92
2022-09-28T04:42:06.578Z,31.27
2022-09-28T04:44:33.377Z,27.25
2022-09-28T04:47:04.826Z,25.95
2022-09-28T04:52:18.874Z,24.20
2022-09-28T04:57:35.099Z,29.05
2022-09-28T05:02:48.928Z,26.13
2022-09-28T05:05:15.786Z,27.33
2022-09-28T05:07:42.489Z,26.65
2022-09-28T05:10:09.355Z,28.90
2022-09-28T05:12:36.067Z,22.20
2022-09-28T05:15:02.858Z,23.10
2022-09-28T05:17:29.578Z,25.52
2022-09-28T05:19:56.286Z,25.08
2022-09-28T05:22:23.289Z,28.35
2022-09-28T05:24:50.014Z,27.73
2022-09-28T05:27:16.726Z,26.95
2022-09-28T05:29:43.484Z,26.58
2022-09-28T05:32:10.262Z,25.65
2022-09-28T05:34:37.098Z,28.50
2022-09-28T05:36:03.915Z,0
2022-09-28T05:37:03.984Z,26.25
2022-09-28T05:39:30.733Z,26.15
2022-09-28T05:41:57.447Z,26.52
2022-09-28T05:44:24.256Z,28.77
2022-09-28T05:46:52.584Z,23.58
2022-09-28T05:49:19.314Z,22.88
2022-09-28T05:51:46.051Z,23.10
2022-09-28T05:56:59.497Z,25.85
2022-09-28T06:02:12.865Z,26.95
2022-09-28T06:07:26.220Z,27.77
2022-09-28T06:09:52.965Z,26.00
2022-09-28T06:12:19.814Z,29.02
2022-09-28T06:14:46.529Z,29.02
2022-09-28T06:17:13.236Z,30.73
2022-09-28T06:19:39.941Z,28.30
2022-09-28T06:22:06.672Z,23.58
2022-09-28T06:24:33.423Z,22.30
2022-09-28T06:27:00.205Z,24.50
2022-09-28T06:29:26.974Z,24.75
2022-09-28T06:31:53.690Z,24.25
2022-09-28T06:34:20.431Z,26.00
2022-09-28T06:36:47.181Z,25.00
2022-09-28T06:39:13.896Z,27.90
2022-09-28T06:41:41.094Z,24.70
2022-09-28T06:44:07.870Z,25.13
2022-09-28T06:46:34.662Z,21.98
2022-09-28T06:49:01.440Z,22.02
2022-09-28T06:51:28.147Z,22.85
2022-09-28T06:53:54.869Z,21.70
2022-09-28T06:59:08.244Z,23.67
2022-09-28T07:04:21.613Z,20.43
2022-09-28T07:09:38.164Z,20.85
2022-09-28T07:09:53.463Z,0
2022-09-28T07:14:43.825Z,0
2022-09-28T07:14:55.165Z,19.27
2022-09-28T07:17:17.648Z,0
2022-09-28T07:17:25.346Z,19.33
2022-09-28T07:19:52.110Z,18.60
2022-09-28T07:22:36.713Z,18.07
2022-09-28T07:25:07.822Z,17.42
2022-09-28T07:27:35.076Z,15.50
2022-09-28T07:30:01.796Z,14.35
2022-09-28T07:35:15.749Z,15.23
2022-09-28T07:40:29.915Z,14.93
2022-09-28T07:42:05.154Z,0
2022-09-28T07:42:56.959Z,13.25
2022-09-28T07:45:23.674Z,15.00
2022-09-28T07:47:59.186Z,15.43
2022-09-28T07:50:26.031Z,16.55
2022-09-28T07:52:52.752Z,16.42
2022-09-28T07:55:19.490Z,17.35
2022-09-28T07:57:46.192Z,13.68
2022-09-28T08:00:13.676Z,17.02
2022-09-28T08:02:40.462Z,16.33
2022-09-28T08:05:07.477Z,12.88
2022-09-28T08:10:20.826Z,14.40
2022-09-28T08:15:34.795Z,14.10
2022-09-28T08:18:02.920Z,15.05
2022-09-28T08:20:31.028Z,14.65
2022-09-28T08:23:07.424Z,15.77
2022-09-28T08:28:23.772Z,15.02
2022-09-28T08:33:37.423Z,14.23
2022-09-28T08:38:51.431Z,14.60
2022-09-28T08:41:44.952Z,12.40
2022-09-28T08:44:19.039Z,12.50
2022-09-28T08:46:49.201Z,11.25
2022-09-28T08:52:38.094Z,11.25
2022-09-28T08:55:14.737Z,12.85
2022-09-28T08:57:50.917Z,16.65
2022-09-28T09:00:33.014Z,12.30
2022-09-28T09:03:03.098Z,12.60
2022-09-28T09:06:09.763Z,12.68
2022-09-28T09:08:50.757Z,10.95
2022-09-28T09:17:58.599Z,10.70
2022-09-28T09:20:50.448Z,9.90
2022-09-28T09:26:25.530Z,10.90
2022-09-28T09:29:14.130Z,11.32
2022-09-28T09:34:55.139Z,11.02
2022-09-28T09:37:39.821Z,8.90
2022-09-28T09:43:33.328Z,11.85
2022-09-28T09:46:08.646Z,11.65
2022-09-28T09:49:05.960Z,9.20
2022-09-28T09:51:45.378Z,11.93
2022-09-28T09:54:32.058Z,12.57
2022-09-28T09:57:05.810Z,9.40
2022-09-28T09:59:37.413Z,8.52
2022-09-28T10:02:24.504Z,9.48
2022-09-28T10:05:14.226Z,9.10
2022-09-28T10:10:49.559Z,11.88
2022-09-28T10:16:03.227Z,8.93
2022-09-28T10:21:19.616Z,10.57
2022-09-28T10:26:24.888Z,8.75
2022-09-28T10:31:53.631Z,8.65
2022-09-28T10:34:29.298Z,9.70
2022-09-28T10:37:04.036Z,8.52
2022-09-28T10:39:48.229Z,9.77
2022-09-28T10:42:30.291Z,7.30
2022-09-28T10:43:59.562Z,0
2022-09-28T10:47:32.028Z,12.77
2022-09-28T10:49:59.520Z,10.48
2022-09-28T10:52:40.868Z,10.27
2022-09-28T10:58:27.578Z,13.53
2022-09-28T11:01:02.246Z,9.00
2022-09-28T11:03:30.397Z,8.00
2022-09-28T11:08:57.725Z,8.77
2022-09-28T11:17:39.150Z,8.40
2022-09-28T11:20:32.451Z,7.35
2022-09-28T11:23:13.667Z,7.55
2022-09-28T11:25:41.247Z,7.20
2022-09-28T11:28:24.610Z,8.80
2022-09-28T11:30:53.493Z,9.85
2022-09-28T11:35:02.365Z,0
2022-09-28T11:36:47.639Z,7.27
2022-09-28T11:39:25.216Z,7.72
2022-09-28T11:42:02.126Z,7.37
2022-09-28T11:47:35.940Z,7.07
2022-09-28T11:50:45.590Z,7.15
2022-09-28T11:53:29.516Z,6.70
2022-09-28T11:56:19.644Z,6.28
2022-09-28T11:58:53.199Z,7.78
2022-09-28T12:01:49.152Z,8.73
2022-09-28T12:04:31.932Z,8.15
2022-09-28T12:07:13.920Z,7.00
2022-09-28T12:09:46.791Z,9.30
2022-09-28T12:12:39.049Z,7.22
2022-09-28T12:15:23.115Z,6.93
2022-09-28T12:17:22.185Z,0
2022-09-28T12:17:56.535Z,7.95
2022-09-28T12:20:29.268Z,8.47
2022-09-28T12:23:02.692Z,7.57
2022-09-28T12:25:36.868Z,5.85
2022-09-28T12:28:11.187Z,9.93
2022-09-28T12:30:39.756Z,13.77
2022-09-28T12:36:02.280Z,7.45
2022-09-28T12:38:37.596Z,7.93
2022-09-28T12:40:02.050Z,0
2022-09-28T12:41:27.019Z,7.28
2022-09-28T12:47:46.628Z,6.70
2022-09-28T12:50:43.309Z,6.80
2022-09-28T12:50:58.855Z,0
2022-09-28T12:53:38.576Z,7.30
2022-09-28T12:56:11.084Z,7.28
2022-09-28T12:58:49.874Z,6.65
2022-09-28T13:04:58.945Z,6.87
2022-09-28T13:07:57.908Z,8.93
2022-09-28T13:10:34.911Z,9.70
2022-09-28T13:13:07.834Z,9.23
2022-09-28T13:15:50.445Z,11.77
2022-09-28T13:18:20.794Z,15.40
2022-09-28T13:21:10.102Z,17.58
2022-09-28T13:23:47.296Z,22.13
2022-09-28T13:26:28.423Z,19.40
2022-09-28T13:29:01.548Z,22.08
2022-09-28T13:31:31.826Z,16.95
2022-09-28T13:34:02.899Z,8.85
2022-09-28T13:39:36.915Z,10.20
2022-09-28T13:42:05.928Z,6.78
2022-09-28T13:45:20.111Z,6.30
2022-09-28T13:51:05.509Z,7.53
2022-09-28T13:53:41.702Z,8.82
2022-09-28T13:56:19.765Z,6.87
2022-09-28T13:58:58.940Z,8.88
2022-09-28T14:01:28.548Z,7.80
2022-09-28T14:04:21.081Z,7.72
2022-09-28T14:06:55.803Z,7.60
2022-09-28T14:09:46.569Z,9.37
2022-09-28T14:12:35.075Z,12.00
2022-09-28T14:15:06.197Z,7.28
2022-09-28T14:17:50.294Z,8.55
2022-09-28T14:20:18.948Z,7.10
2022-09-28T14:23:14.964Z,6.60
2022-09-28T14:25:46.415Z,6.35
2022-09-28T14:28:35.980Z,7.07
2022-09-28T14:31:09.224Z,7.13
2022-09-28T14:36:27.101Z,7.85
2022-09-28T14:38:53.909Z,5.82
2022-09-28T14:41:32.906Z,7.07
2022-09-28T14:47:32.589Z,8.10
2022-09-28T14:53:19.550Z,7.97
2022-09-28T14:58:37.456Z,7.05
2022-09-28T15:01:12.948Z,5.93
2022-09-28T15:03:43.765Z,5.57
2022-09-28T15:06:16.715Z,4.88
2022-09-28T15:08:43.482Z,5.00
2022-09-28T15:11:20.495Z,7.78
2022-09-28T15:13:47.345Z,5.85
2022-09-28T15:16:16.854Z,9.97
2022-09-28T15:18:52.514Z,5.38
2022-09-28T15:24:32.339Z,7.28
2022-09-28T15:27:01.097Z,9.40
2022-09-28T15:29:29.813Z,5.00
2022-09-28T15:31:56.725Z,5.60
2022-09-28T15:34:36.865Z,4.20
2022-09-28T15:39:52.507Z,5.65
2022-09-28T15:45:25.307Z,5.07
2022-09-28T15:47:54.024Z,5.47
2022-09-28T15:50:24.603Z,4.70
2022-09-28T15:53:00.779Z,5.32
2022-09-28T15:55:37.232Z,5.45
2022-09-28T15:58:16.577Z,5.35
2022-09-28T16:00:45.226Z,4.68
2022-09-28T16:03:11.999Z,9.32
2022-09-28T16:05:44.861Z,4.60
2022-09-28T16:08:22.895Z,8.23
2022-09-28T16:11:03.029Z,21.97
2022-09-28T16:13:29.984Z,13.98
2022-09-28T16:16:00.518Z,5.88
2022-09-28T16:18:30.067Z,5.60
2022-09-28T16:21:39.224Z,4.10
2022-09-28T16:24:06.270Z,3.80
2022-09-28T16:26:38.211Z,4.75
2022-09-28T16:29:24.357Z,4.60
2022-09-28T16:31:51.180Z,6.22
2022-09-28T16:34:20.419Z,4.10
2022-09-28T16:36:49.440Z,4.43
2022-09-28T16:39:17.768Z,5.20
2022-09-28T16:41:55.730Z,4.28
2022-09-28T16:44:27.268Z,4.18
2022-09-28T16:49:43.706Z,6.10
2022-09-28T16:55:00.801Z,3.50
2022-09-28T16:55:43.714Z,0
2022-09-28T16:57:27.525Z,4.65
2022-09-28T16:59:54.301Z,6.83
2022-09-28T17:02:45.600Z,4.72
2022-09-28T17:05:10.091Z,7.10
2022-09-28T17:07:37.034Z,4.30
2022-09-28T17:10:09.655Z,4.57
2022-09-28T17:12:36.373Z,4.18
2022-09-28T17:15:03.213Z,5.35
2022-09-28T17:17:29.966Z,4.90
2022-09-28T17:19:56.918Z,6.00
2022-09-28T17:22:23.928Z,5.73
2022-09-28T17:23:22.177Z,0
2022-09-28T17:24:50.803Z,5.03
2022-09-28T17:27:19.604Z,6.90
2022-09-28T17:32:33.486Z,6.57
2022-09-28T17:35:22.709Z,6.13
2022-09-28T17:35:27.269Z,0
2022-09-28T17:37:47.068Z,10.55
2022-09-28T17:40:16.839Z,6.57
2022-09-28T17:42:43.658Z,4.72
2022-09-28T17:45:10.390Z,5.45
2022-09-28T17:47:37.152Z,7.82
2022-09-28T17:50:21.750Z,5.60
2022-09-28T17:52:52.627Z,6.80
2022-09-28T17:58:20.410Z,5.15
2022-09-28T18:00:48.677Z,5.38
2022-09-28T18:03:18.870Z,7.10
2022-09-28T18:05:47.190Z,6.80
2022-09-28T18:11:05.413Z,6.97
2022-09-28T18:16:19.002Z,6.90
2022-09-28T18:21:32.952Z,6.90
2022-09-28T18:23:59.668Z,6.47
2022-09-28T18:26:26.397Z,9.63
2022-09-28T18:28:56.839Z,9.43
2022-09-28T18:33:29.933Z,0
2022-09-28T18:34:10.244Z,9.45
2022-09-28T18:36:36.981Z,9.82
2022-09-28T18:39:04.226Z,8.05
2022-09-28T18:41:30.957Z,7.57
2022-09-28T18:43:57.741Z,5.68
2022-09-28T18:46:24.485Z,7.40
2022-09-28T18:48:51.241Z,7.85
2022-09-28T18:51:17.956Z,9.23
2022-09-28T18:53:44.723Z,6.30
2022-09-28T18:56:14.006Z,7.70
2022-09-28T18:58:42.458Z,6.57
2022-09-28T19:01:29.423Z,6.85
2022-09-28T19:01:34.095Z,0
2022-09-28T19:03:58.333Z,9.80
2022-09-28T19:06:25.100Z,8.05
2022-09-28T19:08:54.162Z,8.93
2022-09-28T19:11:21.428Z,10.18
2022-09-28T19:13:48.219Z,10.90
2022-09-28T19:16:18.146Z,6.57
2022-09-28T19:18:44.951Z,9.05
2022-09-28T19:21:13.515Z,8.32
2022-09-28T19:23:44.716Z,10.48
2022-09-28T19:26:16.360Z,10.10
2022-09-28T19:28:43.367Z,11.40
2022-09-28T19:33:58.596Z,12.53
2022-09-28T19:39:14.908Z,11.40
2022-09-28T19:41:44.735Z,10.93
2022-09-28T19:41:46.311Z,0
2022-09-28T19:44:22.917Z,12.30
2022-09-28T19:46:49.899Z,14.38
2022-09-28T19:49:17.149Z,10.55
2022-09-28T19:52:08.225Z,13.35
2022-09-28T19:57:17.303Z,13.80
2022-09-28T20:02:30.736Z,14.73
2022-09-28T20:07:44.313Z,16.00
2022-09-28T20:10:11.118Z,19.17
2022-09-28T20:12:38.586Z,16.58
2022-09-28T20:14:41.962Z,0
2022-09-28T20:15:05.574Z,17.45
2022-09-28T20:17:32.335Z,20.60
2022-09-28T20:22:25.715Z,17.95
2022-09-28T20:24:52.436Z,17.30
2022-09-28T20:27:22.026Z,17.48
2022-09-28T20:29:51.037Z,20.65
2022-09-28T20:32:17.819Z,19.05
2022-09-28T20:34:44.615Z,20.17
2022-09-28T20:37:11.312Z,23.05
2022-09-28T20:39:41.540Z,18.20
2022-09-28T20:42:11.442Z,18.05
2022-09-28T20:44:38.193Z,15.73
2022-09-28T20:47:04.946Z,17.52
2022-09-28T20:49:31.687Z,18.50
2022-09-28T20:51:58.410Z,20.33
2022-09-28T20:54:25.151Z,17.67
2022-09-28T20:56:51.968Z,19.23
2022-09-28T20:59:18.677Z,22.90
2022-09-28T21:01:45.713Z,22.63
2022-09-28T21:04:12.591Z,21.00
2022-09-28T21:06:41.355Z,21.02
2022-09-28T21:09:10.053Z,22.35
2022-09-28T21:11:37.263Z,25.52
2022-09-28T21:14:06.608Z,22.73
2022-09-28T21:16:35.014Z,20.80
2022-09-28T21:19:02.239Z,22.20
2022-09-28T21:21:29.039Z,25.77
2022-09-28T21:23:57.074Z,27.88
2022-09-28T21:26:26.306Z,24.90
2022-09-28T21:28:54.422Z,26.48
2022-09-28T21:31:27.708Z,26.35
2022-09-28T21:33:55.199Z,26.90
2022-09-28T21:36:21.919Z,31.80
2022-09-28T21:38:48.642Z,31.10
2022-09-28T21:41:15.423Z,30.73
2022-09-28T21:43:42.188Z,26.83
2022-09-28T21:46:10.054Z,26.90
2022-09-28T21:48:36.848Z,29.33
2022-09-28T21:51:06.138Z,25.33
2022-09-28T21:53:35.199Z,26.50
2022-09-28T21:56:03.097Z,25.08
2022-09-28T21:58:32.057Z,28.75
2022-09-28T22:01:17.019Z,27.23
2022-09-28T22:03:46.530Z,29.83
2022-09-28T22:06:13.810Z,27.73
2022-09-28T22:08:40.892Z,26.48
2022-09-28T22:11:12.938Z,28.65
2022-09-28T22:13:42.519Z,27.73
2022-09-28T22:16:10.628Z,24.45
2022-09-28T22:18:37.491Z,28.35
2022-09-28T22:21:11.054Z,29.30
2022-09-28T22:26:30.924Z,34.22
2022-09-28T22:29:00.195Z,33.58
2022-09-28T22:31:32.800Z,31.77
2022-09-28T22:33:59.645Z,28.65
2022-09-28T22:36:26.880Z,29.17
2022-09-28T22:38:57.512Z,31.75
2022-09-28T22:41:24.683Z,28.23
2022-09-28T22:43:52.880Z,29.05
2022-09-28T22:46:22.702Z,29.42
2022-09-28T22:48:51.909Z,31.27
2022-09-28T22:51:19.174Z,33.93
2022-09-28T22:53:46.643Z,29.08
2022-09-28T22:56:18.432Z,34.33
2022-09-28T22:58:46.307Z,30.98
2022-09-28T23:01:24.066Z,33.75
2022-09-28T23:03:52.205Z,35.30
2022-09-28T23:06:20.885Z,41.25
2022-09-28T23:08:48.851Z,33.30
2022-09-28T23:11:16.183Z,39.55
2022-09-28T23:13:43.325Z,34.75
2022-09-28T23:16:13.503Z,34.33
2022-09-28T23:18:40.660Z,31.00
2022-09-28T23:21:10.845Z,37.37
2022-09-28T23:23:37.997Z,37.07
2022-09-28T23:26:16.389Z,37.60
2022-09-28T23:28:44.661Z,36.63
2022-09-28T23:31:24.798Z,38.00
2022-09-28T23:33:52.599Z,35.85
2022-09-28T23:36:19.388Z,36.50
2022-09-28T23:38:46.180Z,45.42
2022-09-28T23:41:12.928Z,45.65
2022-09-28T23:43:39.706Z,39.53
2022-09-28T23:46:06.826Z,40.35
2022-09-28T23:48:34.155Z,40.72
2022-09-28T23:51:02.086Z,38.08
2022-09-28T23:53:29.908Z,35.05
2022-09-28T23:55:56.735Z,34.17
2022-09-28T23:58:23.599Z,38.72
